Time;durP1;ratioP1;P1;durP2;ratioP2;P2;SDS_P1;SDS_P2;PMS_P1;PMS_P2;Temp;Humidity;BMP_temperature;BMP_pressure;BME280_temperature;BME280_humidity;BME280_pressure;Samples;Min_cycle;Max_cycle;Signal;HPM_P1;HPM_P2
2023/02/21 02:14:33;;;;;;;24.87;17.00;;;8.30;99.90;;;;;;5033486;28;20179;-64
2023/02/21 02:17:14;;;;;;;34.27;15.93;;;8.30;99.90;;;;;;5040178;28;20174;-64
2023/02/21 02:20:18;;;;;;;19.90;14.83;;;8.30;99.90;;;;;;5051427;28;20270;-64
2023/02/21 02:23:02;;;;;;;23.33;15.70;;;8.30;99.90;;;;;;5053353;28;20198;-64
2023/02/21 02:25:39;;;;;;;26.43;14.57;;;8.30;99.90;;;;;;5038959;28;20183;-64
2023/02/21 02:28:32;;;;;;;30.07;18.30;;;8.30;99.90;;;;;;5033260;28;20199;-64
2023/02/21 02:31:23;;;;;;;29.37;17.70;;;8.30;99.90;;;;;;5050303;28;20202;-64
2023/02/21 02:33:58;;;;;;;27.43;16.17;;;8.30;99.90;;;;;;5053154;28;20171;-64
2023/02/21 02:36:33;;;;;;;25.27;16.63;;;8.30;99.90;;;;;;5013235;28;20167;-64
2023/02/21 02:39:08;;;;;;;26.67;16.27;;;8.30;99.90;;;;;;5012980;28;20180;-64
2023/02/21 02:41:50;;;;;;;41.20;18.93;;;8.30;99.90;;;;;;5013171;28;20681;-64
2023/02/21 02:44:25;;;;;;;27.20;17.17;;;8.30;99.90;;;;;;5017003;28;20535;-64
2023/02/21 02:46:52;;;;;;;32.43;18.50;;;8.30;99.90;;;;;;5053097;28;20292;-64
2023/02/21 02:49:23;;;;;;;31.03;16.90;;;8.40;99.90;;;;;;5050677;28;20623;-64
2023/02/21 02:51:52;;;;;;;24.90;16.10;;;8.40;99.90;;;;;;5032659;28;20210;-64
2023/02/21 02:54:17;;;;;;;22.63;16.53;;;8.50;99.90;;;;;;5033446;28;20179;-64
2023/02/21 02:56:45;;;;;;;24.23;16.37;;;8.50;99.90;;;;;;5051932;28;20174;-64
2023/02/21 02:59:21;;;;;;;25.20;15.87;;;8.60;99.90;;;;;;5032399;28;20191;-64
2023/02/21 03:02:15;;;;;;;23.97;16.33;;;8.60;99.90;;;;;;5035196;28;20194;-64
2023/02/21 03:05:05;;;;;;;32.20;17.53;;;8.60;99.90;;;;;;5050389;28;20179;-67
2023/02/21 03:07:33;;;;;;;25.63;17.23;;;8.70;99.90;;;;;;5034215;28;20223;-66
2023/02/21 03:10:32;;;;;;;25.83;16.53;;;8.70;99.90;;;;;;5038951;28;20175;-68
2023/02/21 03:13:11;;;;;;;20.47;16.13;;;8.70;99.90;;;;;;5054296;28;20668;-69
2023/02/21 03:15:57;;;;;;;34.23;19.07;;;8.70;99.90;;;;;;5038158;28;20175;-67
2023/02/21 03:18:29;;;;;;;34.73;18.40;;;8.70;99.90;;;;;;5002035;28;20203;-68
2023/02/21 03:20:58;;;;;;;29.20;17.83;;;8.70;99.90;;;;;;5013892;28;20538;-66
2023/02/21 03:23:28;;;;;;;29.50;18.80;;;8.70;99.90;;;;;;5044838;28;20175;-69
2023/02/21 03:26:00;;;;;;;32.10;17.47;;;8.70;99.90;;;;;;5052196;28;20198;-70
2023/02/21 03:28:27;;;;;;;30.83;17.77;;;8.60;99.90;;;;;;5038108;28;20215;-67
2023/02/21 03:30:56;;;;;;;25.37;16.70;;;8.60;99.90;;;;;;5033340;28;20714;-67
2023/02/21 03:33:22;;;;;;;27.67;17.33;;;8.60;99.90;;;;;;5048103;28;20805;-66
2023/02/21 03:35:48;;;;;;;31.10;16.70;;;8.60;99.90;;;;;;5052128;28;20209;-67
2023/02/21 03:38:14;;;;;;;29.07;16.23;;;8.50;99.90;;;;;;5051650;28;20243;-67
2023/02/21 03:40:40;;;;;;;35.63;17.77;;;8.60;99.90;;;;;;5053139;28;20182;-68
2023/02/21 03:43:06;;;;;;;25.63;16.50;;;8.50;99.90;;;;;;5042580;28;20186;-69
2023/02/21 03:45:33;;;;;;;32.20;19.43;;;8.40;99.90;;;;;;5033514;28;20225;-71
2023/02/21 03:47:58;;;;;;;30.20;16.77;;;8.40;99.90;;;;;;5042407;28;20228;-68
2023/02/21 03:50:24;;;;;;;27.97;17.67;;;8.40;99.90;;;;;;5052318;28;20177;-65
2023/02/21 03:52:50;;;;;;;26.83;15.63;;;8.30;99.90;;;;;;5045756;28;20237;-65
2023/02/21 03:55:16;;;;;;;31.23;15.43;;;8.30;99.90;;;;;;5033156;28;20637;-68
2023/02/21 03:57:41;;;;;;;30.97;16.77;;;8.40;99.90;;;;;;5038860;28;20709;-68
2023/02/21 04:00:08;;;;;;;25.63;18.27;;;8.30;99.90;;;;;;5052846;28;20174;-67
2023/02/21 04:02:33;;;;;;;27.57;16.13;;;8.30;99.90;;;;;;5048706;28;20237;-66
2023/02/21 04:04:59;;;;;;;34.97;16.97;;;8.30;99.90;;;;;;5033328;28;20315;-69
2023/02/21 04:07:25;;;;;;;28.20;17.13;;;8.30;99.90;;;;;;5035349;28;20202;-69
2023/02/21 04:09:50;;;;;;;34.23;18.47;;;8.40;99.90;;;;;;5052926;28;20636;-66
2023/02/21 04:12:16;;;;;;;26.03;15.10;;;8.30;99.90;;;;;;5051834;28;20183;-68
2023/02/21 04:14:42;;;;;;;25.77;17.63;;;8.40;99.90;;;;;;5033211;28;20172;-68
2023/02/21 04:17:08;;;;;;;33.17;17.80;;;8.30;99.90;;;;;;5031739;28;20205;-69
2023/02/21 04:19:33;;;;;;;34.67;18.40;;;8.40;99.90;;;;;;5051384;28;20517;-69
2023/02/21 04:21:59;;;;;;;26.67;14.47;;;8.40;99.90;;;;;;5053216;28;20194;-67
2023/02/21 04:24:24;;;;;;;22.77;16.20;;;8.30;99.90;;;;;;5034992;28;20648;-68
2023/02/21 04:26:50;;;;;;;26.87;17.40;;;8.30;99.90;;;;;;5032939;28;20258;-65
2023/02/21 04:29:16;;;;;;;30.40;16.73;;;8.30;99.90;;;;;;5047324;28;20186;-66
2023/02/21 04:31:41;;;;;;;25.00;15.07;;;8.30;99.90;;;;;;5052723;28;20231;-65
2023/02/21 04:34:07;;;;;;;23.57;15.63;;;8.30;99.90;;;;;;5038975;28;20210;-68
2023/02/21 04:36:33;;;;;;;28.90;17.27;;;8.40;99.90;;;;;;5032823;28;20535;-66
2023/02/21 04:38:58;;;;;;;29.33;16.67;;;8.30;99.90;;;;;;5044301;28;20185;-68
2023/02/21 04:41:24;;;;;;;25.83;16.70;;;8.30;99.90;;;;;;5052304;28;20331;-67
2023/02/21 04:43:51;;;;;;;27.77;17.37;;;8.40;99.90;;;;;;5043642;28;20210;-66
2023/02/21 04:46:17;;;;;;;27.23;16.70;;;8.40;99.90;;;;;;5032397;28;20649;-70
2023/02/21 04:48:45;;;;;;;28.33;16.07;;;8.40;99.90;;;;;;5040991;28;20228;-67
2023/02/21 04:51:12;;;;;;;28.20;17.83;;;8.40;99.90;;;;;;5051925;28;20209;-68
2023/02/21 04:53:37;;;;;;;32.93;15.97;;;8.40;99.90;;;;;;5044587;28;20176;-66
2023/02/21 04:56:03;;;;;;;24.93;16.00;;;8.30;99.90;;;;;;5032854;28;20549;-66
2023/02/21 04:58:29;;;;;;;24.60;16.00;;;8.30;99.90;;;;;;5037522;28;20189;-69
2023/02/21 05:00:55;;;;;;;21.83;16.60;;;8.30;99.90;;;;;;5052189;28;20541;-68
2023/02/21 05:03:21;;;;;;;17.77;13.83;;;8.30;99.90;;;;;;5050556;28;20683;-67
2023/02/21 05:05:46;;;;;;;30.10;16.00;;;8.20;99.90;;;;;;5036443;28;20266;-68
2023/02/21 05:08:12;;;;;;;25.80;16.83;;;8.20;99.90;;;;;;5038099;28;20630;-65
2023/02/21 05:10:39;;;;;;;27.93;15.03;;;8.20;99.90;;;;;;5056069;28;20175;-69
2023/02/21 05:13:04;;;;;;;21.33;14.90;;;8.10;99.90;;;;;;5049518;28;20167;-66
2023/02/21 05:15:30;;;;;;;30.03;15.57;;;8.10;99.90;;;;;;5037347;28;20730;-67
2023/02/21 05:17:55;;;;;;;27.03;14.47;;;8.10;99.90;;;;;;5056650;28;20543;-69
2023/02/21 05:20:21;;;;;;;26.53;15.43;;;8.10;99.90;;;;;;5054901;28;20175;-67
2023/02/21 05:22:48;;;;;;;30.53;16.17;;;8.10;99.90;;;;;;5036248;28;20341;-70
2023/02/21 05:25:21;;;;;;;33.63;15.50;;;8.10;99.90;;;;;;5068077;28;20175;-69
2023/02/21 05:27:48;;;;;;;21.40;15.10;;;8.20;99.90;;;;;;5016464;28;20281;-67
2023/02/21 05:30:15;;;;;;;18.57;14.53;;;8.20;99.90;;;;;;5015954;28;20230;-66
2023/02/21 05:32:41;;;;;;;25.50;15.87;;;8.20;99.90;;;;;;5053311;28;20194;-63
2023/02/21 05:35:08;;;;;;;26.53;14.97;;;8.10;99.90;;;;;;5054367;28;20535;-63
2023/02/21 05:37:34;;;;;;;20.33;14.10;;;8.10;99.90;;;;;;5036867;28;20187;-63
2023/02/21 05:40:00;;;;;;;26.13;15.13;;;8.10;99.90;;;;;;5034029;28;20177;-63
2023/02/21 05:42:25;;;;;;;26.10;17.70;;;8.00;99.90;;;;;;5049117;28;20202;-63
2023/02/21 05:44:51;;;;;;;34.40;16.37;;;8.00;99.90;;;;;;5054155;28;20206;-63
2023/02/21 05:47:16;;;;;;;27.07;15.70;;;8.00;99.90;;;;;;5053259;28;20256;-63
2023/02/21 05:49:42;;;;;;;31.67;16.43;;;8.00;99.90;;;;;;5053787;28;20190;-63
2023/02/21 05:52:12;;;;;;;34.63;19.57;;;8.00;99.90;;;;;;5051984;28;20288;-63
2023/02/21 05:54:37;;;;;;;27.63;16.47;;;7.90;99.90;;;;;;5053696;28;20706;-63
2023/02/21 05:57:03;;;;;;;25.43;15.73;;;7.90;99.90;;;;;;5042877;28;20184;-63
2023/02/21 05:59:29;;;;;;;36.10;17.47;;;8.00;99.90;;;;;;5033602;28;20179;-62
2023/02/21 06:01:55;;;;;;;22.87;16.63;;;8.00;99.90;;;;;;5038324;28;20238;-62
2023/02/21 06:04:22;;;;;;;25.73;16.33;;;8.00;99.90;;;;;;5033516;28;20702;-63
2023/02/21 06:06:48;;;;;;;31.70;18.17;;;8.00;99.90;;;;;;5040881;28;20175;-63
2023/02/21 06:09:15;;;;;;;30.20;15.33;;;8.00;99.90;;;;;;5047193;28;20640;-63
2023/02/21 06:11:40;;;;;;;26.63;16.03;;;7.90;99.90;;;;;;5033562;28;20195;-62
2023/02/21 06:14:15;;;;;;;24.17;17.33;;;7.90;99.90;;;;;;5045033;28;20262;-63
2023/02/21 06:16:41;;;;;;;25.77;17.50;;;7.90;99.90;;;;;;5048346;28;20179;-63
2023/02/21 06:19:08;;;;;;;24.23;15.80;;;7.90;99.90;;;;;;5033232;28;20586;-62
2023/02/21 06:21:34;;;;;;;25.53;15.97;;;7.80;99.90;;;;;;5036441;28;20244;-63
2023/02/21 06:24:01;;;;;;;25.20;16.80;;;7.80;99.90;;;;;;5046542;28;20514;-63
2023/02/21 06:26:27;;;;;;;39.90;17.80;;;7.80;99.90;;;;;;5034727;28;20167;-63
2023/02/21 06:28:53;;;;;;;25.10;15.90;;;7.90;99.90;;;;;;5053323;28;20702;-62
2023/02/21 06:31:20;;;;;;;27.97;16.73;;;7.90;99.90;;;;;;5052270;28;20191;-63
2023/02/21 06:33:46;;;;;;;23.33;14.43;;;7.80;99.90;;;;;;5033296;28;20648;-63
2023/02/21 06:36:15;;;;;;;25.03;16.40;;;7.80;99.90;;;;;;5033192;28;20195;-63
2023/02/21 06:38:49;;;;;;;24.20;15.60;;;7.80;99.90;;;;;;5052110;28;20179;-63
2023/02/21 06:41:16;;;;;;;32.13;17.30;;;7.70;99.90;;;;;;5052575;28;20193;-63
2023/02/21 06:43:42;;;;;;;28.20;16.50;;;7.70;99.90;;;;;;5033948;28;20183;-63
2023/02/21 06:46:07;;;;;;;29.17;16.73;;;7.70;99.90;;;;;;5032951;28;20220;-62
2023/02/21 06:48:33;;;;;;;23.90;15.37;;;7.70;99.90;;;;;;5049490;28;20623;-63
2023/02/21 06:50:59;;;;;;;27.67;13.97;;;7.70;99.90;;;;;;5052475;28;20659;-62
2023/02/21 06:53:24;;;;;;;27.90;16.13;;;7.70;99.90;;;;;;5037189;28;20176;-63
2023/02/21 06:55:50;;;;;;;25.33;14.80;;;7.80;99.90;;;;;;5032881;28;20171;-63
2023/02/21 06:58:16;;;;;;;31.80;16.70;;;7.80;99.90;;;;;;5046043;28;20183;-63
2023/02/21 07:00:41;;;;;;;36.60;17.30;;;7.80;99.90;;;;;;5052446;28;20950;-63
2023/02/21 07:03:07;;;;;;;25.80;15.40;;;7.80;99.90;;;;;;5040589;28;20183;-63
2023/02/21 07:05:37;;;;;;;30.07;17.33;;;7.90;99.90;;;;;;5032571;28;20265;-63
2023/02/21 07:08:03;;;;;;;30.60;17.43;;;7.80;99.90;;;;;;5043090;28;20574;-63
2023/02/21 07:10:29;;;;;;;31.17;15.83;;;7.80;99.90;;;;;;5052102;28;20639;-63
2023/02/21 07:12:55;;;;;;;28.10;15.43;;;7.80;99.90;;;;;;5035898;28;20253;-63
2023/02/21 07:15:21;;;;;;;22.87;15.27;;;7.80;99.90;;;;;;5032388;28;20656;-63
2023/02/21 07:17:47;;;;;;;29.57;15.97;;;7.80;99.90;;;;;;5046825;28;20183;-63
2023/02/21 07:20:12;;;;;;;26.30;15.23;;;7.80;99.90;;;;;;5051876;28;20174;-63
2023/02/21 07:22:38;;;;;;;29.97;17.60;;;7.90;99.90;;;;;;5038999;28;20221;-63
2023/02/21 07:25:04;;;;;;;26.03;17.10;;;7.90;99.90;;;;;;5031793;28;20168;-63
2023/02/21 07:27:30;;;;;;;30.00;16.40;;;7.90;99.90;;;;;;5033180;28;20235;-63
2023/02/21 07:29:55;;;;;;;32.20;16.23;;;7.90;99.90;;;;;;5037620;28;20651;-63
2023/02/21 07:32:21;;;;;;;24.87;16.20;;;8.00;99.90;;;;;;5050649;28;20190;-63
2023/02/21 07:34:47;;;;;;;29.03;15.30;;;8.10;99.90;;;;;;5047681;28;20171;-63
2023/02/21 07:37:12;;;;;;;30.67;18.10;;;8.10;99.90;;;;;;5032086;28;20271;-63
2023/02/21 07:39:38;;;;;;;31.07;16.13;;;8.00;99.90;;;;;;5032817;28;20683;-63
2023/02/21 07:42:06;;;;;;;29.53;16.57;;;8.10;99.90;;;;;;5031872;28;20604;-62
2023/02/21 07:44:32;;;;;;;23.50;15.43;;;8.10;99.90;;;;;;5032516;28;20206;-63
2023/02/21 07:46:58;;;;;;;24.07;13.23;;;8.10;99.90;;;;;;5051827;28;20589;-62
2023/02/21 07:49:24;;;;;;;24.77;15.43;;;8.10;99.90;;;;;;5049468;28;20190;-63
2023/02/21 07:51:49;;;;;;;25.40;14.47;;;8.00;99.90;;;;;;5055935;22;20231;-65
2023/02/21 07:54:16;;;;;;;24.37;14.43;;;8.00;99.90;;;;;;5031709;28;20255;-63
2023/02/21 07:56:43;;;;;;;27.67;15.27;;;8.00;99.90;;;;;;5032597;28;20521;-63
2023/02/21 07:59:09;;;;;;;29.77;16.60;;;8.10;99.90;;;;;;5031398;28;20176;-64
2023/02/21 08:01:35;;;;;;;36.07;17.20;;;8.00;99.90;;;;;;5047485;28;20203;-64
2023/02/21 08:04:00;;;;;;;31.27;17.87;;;8.10;99.90;;;;;;5051567;28;20171;-64
2023/02/21 08:06:26;;;;;;;27.43;16.70;;;8.10;99.90;;;;;;5049372;28;20171;-63
2023/02/21 08:08:51;;;;;;;27.10;16.67;;;8.00;99.90;;;;;;5051440;28;20671;-63
2023/02/21 08:11:17;;;;;;;29.20;14.03;;;8.10;99.90;;;;;;5050669;28;20199;-64
2023/02/21 08:13:43;;;;;;;28.23;14.83;;;8.10;99.90;;;;;;5051462;28;20300;-64
2023/02/21 08:16:08;;;;;;;31.50;16.17;;;8.10;99.90;;;;;;5051127;28;20182;-64
2023/02/21 08:18:34;;;;;;;30.90;16.00;;;8.10;99.90;;;;;;5035595;28;20710;-64
2023/02/21 08:20:59;;;;;;;29.50;18.70;;;8.10;99.90;;;;;;5031156;28;20176;-65
2023/02/21 08:23:25;;;;;;;29.77;17.23;;;8.10;99.90;;;;;;5032380;28;20628;-64
2023/02/21 08:25:50;;;;;;;32.17;18.20;;;8.00;99.90;;;;;;5031426;28;20171;-65
2023/02/21 08:28:16;;;;;;;43.73;21.97;;;8.00;99.90;;;;;;5040037;28;20205;-65
2023/02/21 08:30:42;;;;;;;23.30;14.27;;;8.00;99.90;;;;;;5050816;28;20249;-64
2023/02/21 08:33:08;;;;;;;31.10;16.40;;;8.00;99.90;;;;;;5043212;28;20199;-65
2023/02/21 08:35:34;;;;;;;31.13;18.70;;;7.90;99.90;;;;;;5031341;28;20234;-65
2023/02/21 08:38:02;;;;;;;23.73;13.20;;;7.90;99.90;;;;;;5040661;28;20225;-64
2023/02/21 08:40:31;;;;;;;32.70;18.17;;;7.80;99.90;;;;;;5054833;28;20171;-65
2023/02/21 08:42:58;;;;;;;39.10;19.27;;;7.90;99.90;;;;;;5050272;28;20241;-66
2023/02/21 08:45:26;;;;;;;40.80;18.10;;;7.90;99.90;;;;;;5035229;28;20589;-65
2023/02/21 08:47:51;;;;;;;31.97;19.40;;;7.90;99.90;;;;;;5036493;28;20206;-65
2023/02/21 08:50:19;;;;;;;29.17;15.70;;;8.00;99.90;;;;;;5034682;28;20656;-65
2023/02/21 08:52:49;;;;;;;38.37;18.97;;;8.00;99.90;;;;;;5036493;28;20199;-65
2023/02/21 08:55:15;;;;;;;26.37;16.07;;;8.00;99.90;;;;;;5054874;28;20659;-66
2023/02/21 08:57:40;;;;;;;29.97;14.37;;;8.00;99.90;;;;;;5054733;28;20624;-65
2023/02/21 09:00:10;;;;;;;26.97;15.60;;;8.00;99.90;;;;;;5053628;28;20240;-65
2023/02/21 09:02:40;;;;;;;38.97;17.27;;;8.00;99.90;;;;;;5054644;28;20551;-66
2023/02/21 09:05:12;;;;;;;23.87;13.93;;;8.00;99.90;;;;;;5041569;28;20213;-65
2023/02/21 09:07:38;;;;;;;25.90;14.50;;;8.00;99.90;;;;;;5054747;28;20263;-65
2023/02/21 09:10:04;;;;;;;17.37;12.57;;;8.00;99.90;;;;;;5052209;28;20167;-65
2023/02/21 09:12:30;;;;;;;30.23;15.57;;;8.00;99.90;;;;;;5041041;28;20688;-65
2023/02/21 09:14:55;;;;;;;21.27;12.13;;;8.10;99.90;;;;;;5034944;28;20246;-65
2023/02/21 09:17:21;;;;;;;24.13;13.13;;;8.10;99.90;;;;;;5045373;28;20186;-65
2023/02/21 09:19:46;;;;;;;26.97;14.00;;;8.10;99.90;;;;;;5054367;28;20183;-65
2023/02/21 09:22:12;;;;;;;34.87;16.93;;;8.20;99.90;;;;;;5044923;28;20203;-65
2023/02/21 09:24:38;;;;;;;30.23;15.60;;;8.10;99.90;;;;;;5039863;28;20186;-65
2023/02/21 09:27:04;;;;;;;27.60;14.67;;;8.20;99.90;;;;;;5054394;28;20178;-65
2023/02/21 09:29:32;;;;;;;22.90;13.37;;;8.20;99.90;;;;;;5049738;28;20170;-65
2023/02/21 09:31:59;;;;;;;25.70;13.40;;;8.20;99.90;;;;;;5034337;28;20187;-64
2023/02/21 09:34:26;;;;;;;19.77;13.27;;;8.20;99.90;;;;;;5036344;28;20266;-65
2023/02/21 09:36:53;;;;;;;21.67;14.60;;;8.20;99.90;;;;;;5054133;28;20600;-65
2023/02/21 09:39:20;;;;;;;18.10;12.50;;;8.30;99.90;;;;;;5052483;28;20177;-65
2023/02/21 09:41:46;;;;;;;21.23;13.87;;;8.40;99.90;;;;;;5034112;28;20238;-64
2023/02/21 09:44:30;;;;;;;22.07;13.33;;;8.40;99.90;;;;;;5034159;28;20225;-65
2023/02/21 09:47:03;;;;;;;25.60;14.87;;;8.50;99.90;;;;;;5014353;28;20554;-65
2023/02/21 09:49:33;;;;;;;28.67;16.50;;;8.60;99.90;;;;;;5014151;28;20176;-65
2023/02/21 09:52:01;;;;;;;25.93;13.73;;;8.60;99.90;;;;;;5014152;28;20203;-65
2023/02/21 09:54:46;;;;;;;28.23;15.20;;;8.70;99.90;;;;;;5014460;28;20204;-65
2023/02/21 09:57:15;;;;;;;22.23;16.07;;;8.80;99.90;;;;;;5014083;28;20176;-66
2023/02/21 09:59:41;;;;;;;21.17;13.63;;;8.90;99.90;;;;;;5016549;28;20230;-65
2023/02/21 10:02:12;;;;;;;18.77;12.83;;;8.90;99.90;;;;;;5053602;28;20186;-65
2023/02/21 10:05:13;;;;;;;21.27;13.60;;;8.90;99.90;;;;;;5053239;28;20178;-65
2023/02/21 10:07:59;;;;;;;26.30;13.50;;;8.90;99.90;;;;;;5033782;28;20285;-65
2023/02/21 10:10:42;;;;;;;28.70;12.73;;;8.90;99.90;;;;;;5034609;28;20175;-65
2023/02/21 10:13:26;;;;;;;22.43;13.60;;;8.90;99.90;;;;;;5033419;28;20220;-65
2023/02/21 10:16:01;;;;;;;14.83;12.17;;;9.00;99.90;;;;;;5033555;28;20586;-64
2023/02/21 10:18:36;;;;;;;23.93;13.57;;;9.00;99.90;;;;;;5035697;28;20254;-65
2023/02/21 10:21:08;;;;;;;18.40;13.17;;;9.10;99.90;;;;;;5051696;28;20312;-65
2023/02/21 10:23:45;;;;;;;18.47;13.33;;;9.10;99.90;;;;;;5048352;28;20171;-65
2023/02/21 10:26:17;;;;;;;17.57;12.00;;;9.10;99.90;;;;;;5033320;28;20199;-65
2023/02/21 10:28:43;;;;;;;19.37;13.33;;;9.10;99.90;;;;;;5034282;28;20207;-65
2023/02/21 10:31:17;;;;;;;26.13;13.53;;;9.10;99.90;;;;;;5032864;28;20266;-65
2023/02/21 10:33:42;;;;;;;20.77;13.53;;;9.20;99.90;;;;;;5045926;28;20241;-65
2023/02/21 10:36:17;;;;;;;19.67;13.20;;;9.40;99.90;;;;;;5053154;28;20186;-65
2023/02/21 10:39:01;;;;;;;25.70;13.30;;;9.40;99.90;;;;;;5040550;28;20175;-65
2023/02/21 10:41:30;;;;;;;16.07;11.57;;;9.50;99.90;;;;;;5032458;28;20191;-65
2023/02/21 10:44:04;;;;;;;26.20;14.30;;;9.40;99.90;;;;;;5032949;28;20223;-65
2023/02/21 10:46:36;;;;;;;21.83;13.90;;;9.30;99.90;;;;;;5032814;28;20487;-65
2023/02/21 10:49:23;;;;;;;22.60;13.13;;;9.40;99.90;;;;;;5033134;28;20265;-65
2023/02/21 10:52:05;;;;;;;21.90;13.43;;;9.40;99.90;;;;;;5032657;28;20269;-65
2023/02/21 10:54:30;;;;;;;19.77;13.83;;;9.40;99.90;;;;;;5049418;28;20262;-64
2023/02/21 10:56:58;;;;;;;23.83;13.33;;;9.40;99.90;;;;;;5052779;28;20248;-65
2023/02/21 10:59:26;;;;;;;29.77;18.33;;;9.40;99.90;;;;;;5036474;28;20168;-65
2023/02/21 11:01:53;;;;;;;24.67;16.17;;;9.50;99.90;;;;;;5032340;28;20259;-65
2023/02/21 11:04:19;;;;;;;23.80;13.53;;;9.60;99.90;;;;;;5046167;28;20181;-65
2023/02/21 11:06:58;;;;;;;19.97;13.73;;;9.80;99.90;;;;;;5051176;28;20178;-64
2023/02/21 11:09:26;;;;;;;21.67;15.33;;;9.70;99.90;;;;;;5038240;28;20218;-65
2023/02/21 11:12:10;;;;;;;21.33;13.67;;;9.70;99.90;;;;;;5041186;28;20281;-66
2023/02/21 11:14:36;;;;;;;17.13;12.30;;;9.80;99.90;;;;;;5052096;28;20532;-66
2023/02/21 11:17:22;;;;;;;19.70;13.33;;;9.80;99.90;;;;;;5039372;28;20176;-65
2023/02/21 11:19:51;;;;;;;21.67;14.90;;;9.90;99.90;;;;;;5032448;28;20178;-64
2023/02/21 11:22:25;;;;;;;16.97;13.57;;;10.00;99.90;;;;;;5050293;28;20203;-64
2023/02/21 11:25:05;;;;;;;21.30;14.03;;;10.20;99.90;;;;;;5053031;28;20168;-64
2023/02/21 11:27:35;;;;;;;19.30;13.23;;;10.40;99.90;;;;;;5033163;28;20203;-65
2023/02/21 11:30:07;;;;;;;24.83;14.13;;;10.60;99.90;;;;;;5033413;28;20246;-65
2023/02/21 11:32:38;;;;;;;20.03;12.70;;;10.70;99.90;;;;;;5032940;28;20252;-65
2023/02/21 11:35:20;;;;;;;28.53;16.13;;;10.90;99.90;;;;;;5032406;28;20174;-65
2023/02/21 11:38:01;;;;;;;25.60;17.70;;;11.00;99.90;;;;;;5050716;28;20186;-65
2023/02/21 11:40:47;;;;;;;19.13;13.47;;;11.20;99.90;;;;;;5050452;28;20271;-65
2023/02/21 11:43:28;;;;;;;17.90;12.13;;;11.20;99.90;;;;;;5032017;28;20198;-65
2023/02/21 11:46:01;;;;;;;26.20;16.57;;;11.00;99.90;;;;;;5035709;28;20170;-65
2023/02/21 11:48:31;;;;;;;21.97;16.73;;;11.00;99.90;;;;;;5051558;28;20202;-64
2023/02/21 11:51:04;;;;;;;21.40;15.90;;;11.20;99.90;;;;;;5031766;28;20210;-64
2023/02/21 11:53:38;;;;;;;18.63;16.57;;;11.40;99.90;;;;;;5031715;28;20175;-64
2023/02/21 11:56:31;;;;;;;20.67;15.20;;;11.70;99.90;;;;;;5035340;28;20170;-65
2023/02/21 11:59:16;;;;;;;20.60;15.57;;;11.80;99.90;;;;;;5051899;28;20175;-66
2023/02/21 12:02:03;;;;;;;25.77;12.97;;;12.00;99.90;;;;;;5044167;28;20199;-65
2023/02/21 12:05:06;;;;;;;16.53;12.73;;;12.00;99.90;;;;;;5035033;28;20216;-65
2023/02/21 12:08:22;;;;;;;14.07;10.67;;;11.90;99.90;;;;;;5031269;28;20268;-65
2023/02/21 12:10:51;;;;;;;16.50;11.97;;;11.80;99.90;;;;;;5045257;28;20201;-65
2023/02/21 12:13:41;;;;;;;18.63;11.63;;;11.70;99.90;;;;;;5049470;28;20572;-63
2023/02/21 12:16:19;;;;;;;16.37;11.67;;;11.60;99.90;;;;;;5051329;28;20162;-64
2023/02/21 12:19:03;;;;;;;16.77;11.57;;;11.60;99.90;;;;;;5045182;28;20523;-64
2023/02/21 12:22:00;;;;;;;20.00;12.83;;;11.60;99.90;;;;;;5029972;28;20675;-64
2023/02/21 12:24:45;;;;;;;20.33;12.57;;;11.80;99.90;;;;;;5033068;28;20190;-65
2023/02/21 12:27:16;;;;;;;15.07;12.87;;;12.00;99.90;;;;;;5051270;28;20178;-64
2023/02/21 12:30:23;;;;;;;15.23;11.33;;;12.00;99.90;;;;;;5038593;28;20183;-64
2023/02/21 12:32:59;;;;;;;17.77;12.37;;;12.10;99.90;;;;;;5048331;28;20214;-64
2023/02/21 12:35:40;;;;;;;12.73;10.57;;;12.10;99.90;;;;;;5033733;28;20641;-63
2023/02/21 12:38:29;;;;;;;18.13;11.33;;;11.90;99.90;;;;;;5043830;28;20209;-63
2023/02/21 12:41:46;;;;;;;14.27;12.10;;;11.60;99.90;;;;;;5048012;28;20652;-64
2023/02/21 12:44:18;;;;;;;21.87;13.23;;;11.50;99.90;;;;;;5031051;28;20191;-64
2023/02/21 12:46:58;;;;;;;17.47;13.93;;;11.50;99.90;;;;;;5032153;28;20580;-64
2023/02/21 12:49:45;;;;;;;22.07;13.27;;;11.50;99.90;;;;;;5046981;28;20257;-64
2023/02/21 12:52:39;;;;;;;17.87;12.83;;;11.50;99.90;;;;;;5050500;28;20246;-65
2023/02/21 12:55:17;;;;;;;17.90;12.97;;;11.60;99.90;;;;;;5047751;28;20189;-64
2023/02/21 12:57:50;;;;;;;21.23;13.07;;;11.70;99.90;;;;;;5032260;28;20543;-64
2023/02/21 13:00:26;;;;;;;17.63;12.20;;;11.80;99.90;;;;;;5035959;28;20179;-64
2023/02/21 13:03:02;;;;;;;19.43;13.57;;;11.80;99.90;;;;;;5050874;28;20697;-64
2023/02/21 13:06:07;;;;;;;19.57;13.63;;;11.80;99.90;;;;;;5044227;28;20465;-64
2023/02/21 13:08:48;;;;;;;16.33;13.60;;;11.90;99.90;;;;;;5028523;28;20210;-65
2023/02/21 13:11:20;;;;;;;16.97;12.63;;;11.90;99.90;;;;;;5035063;28;20238;-64
2023/02/21 13:13:45;;;;;;;21.97;12.67;;;12.00;99.90;;;;;;5031498;28;20539;-65
2023/02/21 13:16:13;;;;;;;17.70;13.23;;;12.10;99.90;;;;;;5030947;28;20229;-65
2023/02/21 13:18:43;;;;;;;20.57;12.90;;;12.00;99.90;;;;;;5030833;28;20206;-65
2023/02/21 13:21:29;;;;;;;20.53;13.27;;;11.80;99.90;;;;;;5049364;28;20191;-64
2023/02/21 13:24:42;;;;;;;19.37;13.07;;;11.60;99.90;;;;;;5051155;28;20171;-65
2023/02/21 13:27:38;;;;;;;19.97;14.27;;;11.50;99.90;;;;;;5035992;28;20254;-64
2023/02/21 13:30:22;;;;;;;15.17;12.17;;;11.60;99.90;;;;;;5048795;28;20178;-64
2023/02/21 13:32:56;;;;;;;19.87;13.60;;;11.50;99.90;;;;;;5049371;28;20206;-64
2023/02/21 13:35:35;;;;;;;17.80;13.07;;;11.60;99.90;;;;;;5034058;28;20182;-65
2023/02/21 13:38:05;;;;;;;18.67;12.80;;;11.70;99.90;;;;;;5035904;28;20329;-64
2023/02/21 13:40:39;;;;;;;19.77;12.67;;;11.70;99.90;;;;;;5043609;28;20176;-64
2023/02/21 13:43:17;;;;;;;17.60;12.20;;;11.60;99.90;;;;;;5034103;28;20199;-63
2023/02/21 13:45:44;;;;;;;15.40;12.57;;;11.60;99.90;;;;;;5035281;28;20183;-64
2023/02/21 13:48:26;;;;;;;23.83;13.40;;;11.60;99.90;;;;;;5033943;28;20234;-65
2023/02/21 13:51:01;;;;;;;19.87;13.27;;;11.40;99.90;;;;;;5034693;28;20253;-65
2023/02/21 13:54:06;;;;;;;21.07;10.30;;;11.20;99.90;;;;;;5046232;28;20722;-64
2023/02/21 13:56:46;;;;;;;16.73;12.27;;;11.30;99.90;;;;;;5041060;28;20226;-65
2023/02/21 13:59:35;;;;;;;19.47;11.63;;;11.30;99.90;;;;;;5033894;28;20664;-65
2023/02/21 14:02:25;;;;;;;18.83;15.13;;;11.40;99.90;;;;;;5032678;28;20230;-65
2023/02/21 14:05:01;;;;;;;18.67;14.73;;;11.60;99.90;;;;;;5033859;28;20188;-65
2023/02/21 14:07:47;;;;;;;16.30;12.83;;;11.70;99.90;;;;;;5034606;28;20566;-65
2023/02/21 14:10:24;;;;;;;22.23;13.13;;;11.90;99.90;;;;;;5033471;28;20648;-64
2023/02/21 14:12:54;;;;;;;22.23;13.80;;;12.00;99.90;;;;;;5013776;28;20215;-65
2023/02/21 14:15:20;;;;;;;24.03;13.57;;;12.10;99.90;;;;;;5014127;28;20184;-66
2023/02/21 14:17:47;;;;;;;23.20;13.17;;;12.20;99.90;;;;;;5053587;28;20178;-65
2023/02/21 14:20:20;;;;;;;22.87;15.70;;;12.40;99.90;;;;;;5053144;28;20259;-65
2023/02/21 14:22:50;;;;;;;23.17;14.47;;;12.60;99.90;;;;;;5053212;28;20207;-65
2023/02/21 14:25:20;;;;;;;28.43;16.80;;;12.60;99.90;;;;;;5053247;28;20185;-66
2023/02/21 14:27:46;;;;;;;22.53;15.57;;;12.50;99.90;;;;;;5033909;28;20207;-65
2023/02/21 14:30:11;;;;;;;22.20;14.83;;;12.40;99.90;;;;;;5043048;28;20185;-65
2023/02/21 14:32:49;;;;;;;26.27;15.27;;;12.30;99.90;;;;;;5053035;28;20202;-66
2023/02/21 14:35:35;;;;;;;26.23;15.70;;;12.40;99.90;;;;;;5039792;28;20179;-66
2023/02/21 14:38:14;;;;;;;23.27;14.73;;;12.50;99.90;;;;;;5033552;28;20718;-65
2023/02/21 14:40:45;;;;;;;22.30;14.57;;;12.40;99.90;;;;;;5045756;28;20179;-66
2023/02/21 14:43:22;;;;;;;24.07;14.70;;;12.30;99.90;;;;;;5052998;28;20187;-65
2023/02/21 14:46:15;;;;;;;26.17;14.67;;;12.30;99.90;;;;;;5039093;28;20194;-66
2023/02/21 14:49:11;;;;;;;29.43;16.10;;;12.30;99.90;;;;;;5032890;28;20207;-65
2023/02/21 14:52:01;;;;;;;25.40;15.70;;;12.20;99.90;;;;;;5052353;28;20207;-65
2023/02/21 14:55:01;;;;;;;22.47;15.33;;;12.20;99.90;;;;;;5050939;28;20287;-65
2023/02/21 14:57:59;;;;;;;19.07;14.87;;;12.10;99.90;;;;;;5032742;28;20665;-65
2023/02/21 15:00:48;;;;;;;23.03;14.60;;;12.00;99.90;;;;;;5012625;28;20176;-65
2023/02/21 15:03:22;;;;;;;21.70;14.13;;;11.70;99.90;;;;;;5019770;28;20203;-65
2023/02/21 15:06:05;;;;;;;22.50;15.80;;;11.80;99.90;;;;;;5052852;28;20186;-65
2023/02/21 15:08:44;;;;;;;22.40;14.80;;;11.80;99.90;;;;;;5028583;28;20210;-65
2023/02/21 15:11:32;;;;;;;22.77;14.17;;;11.60;99.90;;;;;;5052893;28;20229;-65
2023/02/21 15:14:37;;;;;;;17.00;12.70;;;11.40;99.90;;;;;;5041397;28;20732;-65